Terminal Aerodrome Forecast
Issued by NWS

Home | Current Version | Previous Version | Text Only | Print | Product List | Glossary On
Versions: 1 2 3 4 5 6 7 8 9 10 11 12 13 14 15 16
000
FTUS41 KPBZ 230822 AAA
TAFZZV
TAF AMD
KZZV 230822Z 2308/2406 19008KT P6SM SCT005 OVC050
     FM230930 19005KT P6SM BKN015
     FM231100 19008KT P6SM BKN008
     FM231500 21008KT P6SM BKN015
     FM231800 22008KT P6SM BKN025
     FM240000 17005KT P6SM BKN035=

USA.gov is the U.S. government's official web portal to all federal, state and local government web resources and services.